Trinidad, Washington
Current Conditions -  °F | °C
As of 10:30 AM on Saturday 25 Oct 2014 (Local Time) from KEPH Reporting Station
Broken Clouds Broken Clouds  
Wind Chill: 54°   Ceiling: 2200
Heat Index: 54°   Visibility: 10mi
Dew Point: 44°   Wind: 9mph
Humidity: 69%   Direction: 20°NNE
Pressure: 29.6"   Gusts: NA
Location:  47.1872°N, 119.812°W
Report Text: KEPH 251730Z AUTO 02008KT 10SM BKN022 BKN120 12/07 A2960 RMK AO2 T01220067
Loading
Personal Weather Stations






























Interactive Weather Map
Tropical Storm Tracking
New forecast layout! Learn more

10-Day Weather Forecast

Advertisements
Track Severe Weather on mobile